Terminal Aerodrome Forecast
Issued by NWS

Home | Current Version | Previous Version | Text Only | Print | Product List | Glossary On
Versions: 1 2 3 4 5 6 7 8 9 10 11 12 13
000
FTUS44 KSJT 061128
TAFBBD
TAF
KBBD 061128Z 0612/0712 VRB05KT P6SM BKN250
     FM061500 36015G23KT P6SM BKN012
     FM061600 03015KT P6SM BKN009
     FM062100 06009KT P6SM OVC015
     FM070300 01005KT P6SM BKN009
      AMD NOT SKED=

USA.gov is the U.S. government's official web portal to all federal, state and local government web resources and services.